Fire Island Natl Seashore, New York
Current Conditions -  °F | °C
As of 5:56 PM on Thursday 18 Dec 2014 (Local Time) from KISP Reporting Station
Few Clouds Few Clouds  
Wind Chill: 29°   Ceiling: Unl
Heat Index: 38°   Visibility: 10mi
Dew Point: 26°   Wind: 15mph
Humidity: 62%   Direction: 300°WNW
Pressure: 29.92"   Gusts: 22mph
Location:  40.67°N, 73.04°W
Report Text: KISP 182256Z 30013G19KT 10SM FEW040 03/M03 A2992 RMK AO2 SLP131 T00331033
Loading
Personal Weather Stations






























Interactive Weather Map New forecast layout! Learn more

10-Day Weather Forecast

Advertisements
Track Severe Weather on mobile